Terminal Aerodrome Forecast
Issued by NWS Upton, NY

Home | Current Version | Previous Version | Text Only | Print | Product List | Glossary On
Versions: 1 2 3 4 5 6 7 8 9 10 11 12 13 14 15 16 17 18 19 20 21 22 23 24 25 26 27 28 29
000
FTUS41 KOKX 302340
TAFBDR
TAF
KBDR 302340Z 0100/0124 09013KT P6SM SCT025 OVC035
     FM010300 10015KT P6SM FEW008 OVC015
     FM010500 10015KT 4SM -DZ BR FEW003 OVC008
     FM010700 10015KT 2SM -DZ BR OVC003
     FM010900 10008KT 1/2SM -DZ FG OVC003
     FM011700 13007KT 4SM BR BKN007
     FM012000 17010KT P6SM BKN015
     FM012200 18016KT P6SM SCT015 SCT250=

USA.gov is the U.S. government's official web portal to all federal, state and local government web resources and services.